Time;durP1;ratioP1;P1;durP2;ratioP2;P2;SDS_P1;SDS_P2;PMS_P1;PMS_P2;Temp;Humidity;BMP_temperature;BMP_pressure;BME280_temperature;BME280_humidity;BME280_pressure;Samples;Min_cycle;Max_cycle;Signal;HPM_P1;HPM_P2
2021/12/24 00:01:24;;;;;;;11.48;7.57;;;;;;;-145.06;0.00;60892.56;4818367;28;20030;-87
2021/12/24 00:04:03;;;;;;;9.98;6.47;;;;;;;187.52;0.00;60892.56;4833062;28;20038;-86
2021/12/24 00:06:42;;;;;;;10.70;6.80;;;;;;;-145.06;0.00;60892.56;4821453;28;20034;-87
2021/12/24 00:09:23;;;;;;;11.40;7.18;;;;;;;-145.06;0.00;60892.56;4817238;28;20027;-87
2021/12/24 00:12:10;;;;;;;10.05;6.82;;;;;;;9.69;0.00;60892.56;4821246;28;20378;-87
2021/12/24 00:14:53;;;;;;;8.70;5.95;;;;;;;9.67;0.00;60892.56;4822681;28;20026;-87
2021/12/24 00:17:35;;;;;;;8.20;6.00;;;;;;;-145.06;0.00;60892.56;4817790;28;20038;-86
2021/12/24 00:37:46;;;;;;;8.77;5.82;;;;;;;-145.06;0.00;60892.56;4813043;28;20026;-87
2021/12/24 00:40:25;;;;;;;7.90;5.50;;;;;;;-145.06;0.00;60892.56;4806642;28;20058;-87
2021/12/24 00:43:05;;;;;;;8.68;5.80;;;;;;;-145.06;0.00;60892.56;4822023;28;20034;-87
2021/12/24 00:45:45;;;;;;;8.68;5.85;;;;;;;-145.06;0.00;60892.56;4804012;28;20034;-87
2021/12/24 00:48:24;;;;;;;9.20;6.45;;;;;;;-145.06;0.00;60892.56;4816126;28;20066;-88
2021/12/24 00:56:21;;;;;;;9.23;5.97;;;;;;;-145.06;0.00;60892.56;4810679;28;20026;-86
2021/12/24 00:59:01;;;;;;;8.20;6.20;;;;;;;-145.06;0.00;60892.56;4816388;28;20477;-87
2021/12/24 01:01:40;;;;;;;10.15;6.70;;;;;;;-145.06;0.00;60892.56;4817808;28;20034;-87
2021/12/24 01:04:18;;;;;;;7.00;5.23;;;;;;;-145.06;0.00;60892.56;4809738;28;20125;-87
2021/12/24 01:06:58;;;;;;;7.90;5.35;;;;;;;-145.06;0.00;60892.56;4814809;28;20771;-87
2021/12/24 01:09:37;;;;;;;7.55;5.40;;;;;;;-145.06;0.00;60892.56;4818277;28;20029;-86
2021/12/24 01:12:16;;;;;;;7.85;4.85;;;;;;;9.46;0.00;60892.56;4817086;28;20030;-87
2021/12/24 01:14:55;;;;;;;7.10;4.77;;;;;;;9.71;0.00;60892.56;4817237;28;20068;-86
2021/12/24 01:18:31;;;;;;;6.75;4.72;;;;;;;9.48;0.00;60892.56;4813454;28;20027;-87
2021/12/24 01:20:50;;;;;;;6.15;4.40;;;;;;;9.44;0.00;60892.56;4810276;28;20034;-87
2021/12/24 01:23:39;;;;;;;5.28;3.97;;;;;;;-145.06;0.00;60892.56;4817481;28;20031;-87
2021/12/24 01:26:34;;;;;;;5.85;4.43;;;;;;;-145.06;0.00;60892.56;4828194;28;20476;-87
2021/12/24 01:37:55;;;;;;;4.68;3.90;;;;;;;-145.06;0.00;60892.56;4818567;28;20026;-87
2021/12/24 01:40:51;;;;;;;7.10;4.38;;;;;;;9.42;0.00;60892.56;4814922;28;20034;-87
2021/12/24 01:43:30;;;;;;;6.05;4.05;;;;;;;-145.06;0.00;60892.56;4819784;28;20038;-87
2021/12/24 01:46:09;;;;;;;6.45;3.83;;;;;;;9.71;0.00;60892.56;4819774;28;20031;-87
2021/12/24 01:48:48;;;;;;;7.57;4.50;;;;;;;-145.06;0.00;60892.56;4826712;28;20062;-87
2021/12/24 01:51:28;;;;;;;5.03;4.00;;;;;;;-145.06;0.00;60892.56;4821239;28;20026;-87
2021/12/24 01:54:10;;;;;;;6.30;4.57;;;;;;;10.03;0.00;60892.56;4820008;28;20381;-86
2021/12/24 01:56:49;;;;;;;8.75;5.43;;;;;;;-145.06;0.00;60892.56;4812492;28;20369;-86
2021/12/24 01:59:28;;;;;;;7.00;4.97;;;;;;;-145.06;0.00;60892.56;4820549;28;20106;-86
2021/12/24 02:02:08;;;;;;;6.65;5.10;;;;;;;-145.06;0.00;60892.56;4817211;28;20120;-87
2021/12/24 02:04:47;;;;;;;;;;;;;;;-145.06;0.00;60892.56;4815260;28;20038;-87
2021/12/24 02:07:26;;;;;;;9.07;5.70;;;;;;;-145.06;0.00;60892.56;4824119;28;19941;-87
2021/12/24 02:10:07;;;;;;;7.70;4.87;;;;;;;9.55;0.00;60892.56;4818794;28;20022;-87
2021/12/24 02:12:48;;;;;;;6.28;4.13;;;;;;;-145.06;0.00;60892.56;4819867;28;20031;-87
2021/12/24 02:30:11;;;;;;;6.93;4.75;;;;;;;9.50;0.00;60892.56;4814125;28;20034;-87
2021/12/24 02:32:50;;;;;;;7.35;4.72;;;;;;;9.51;0.00;60892.56;4819390;28;20133;-87
2021/12/24 02:35:30;;;;;;;8.50;5.00;;;;;;;9.50;0.00;60892.56;4846512;28;20034;-87
2021/12/24 02:38:08;;;;;;;5.80;4.47;;;;;;;-145.06;0.00;60892.56;4813673;28;20369;-86
2021/12/24 02:40:48;;;;;;;7.30;4.67;;;;;;;9.55;0.00;60892.56;4812558;28;20035;-86
2021/12/24 02:43:27;;;;;;;9.30;5.38;;;;;;;-145.06;0.00;60892.56;4818177;28;20278;-87
2021/12/24 02:46:14;;;;;;;7.38;5.25;;;;;;;-145.06;0.00;60892.56;4816834;28;20448;-87
2021/12/24 02:54:32;;;;;;;7.05;4.90;;;;;;;-145.06;0.00;60892.56;4813227;28;20488;-86
2021/12/24 02:57:15;;;;;;;8.13;5.28;;;;;;;-145.06;0.00;60892.56;4834384;28;20034;-87
2021/12/24 03:00:00;;;;;;;9.25;5.43;;;;;;;9.60;0.00;60892.56;4803122;28;20039;-88
2021/12/24 03:02:40;;;;;;;7.97;5.28;;;;;;;-145.06;0.00;60892.56;4800570;28;20030;-87
2021/12/24 03:05:22;;;;;;;9.25;4.82;;;;;;;-145.06;0.00;60892.56;4817476;28;20117;-87
2021/12/24 03:08:01;;;;;;;8.18;5.28;;;;;;;9.56;0.00;60892.56;4817037;28;20469;-86
2021/12/24 03:10:42;;;;;;;7.47;5.25;;;;;;;-145.06;0.00;60892.56;4822372;28;20026;-87
2021/12/24 03:13:23;;;;;;;7.80;4.65;;;;;;;-145.06;0.00;60892.56;4817337;28;20290;-87
2021/12/24 03:16:03;;;;;;;5.85;4.45;;;;;;;9.52;0.00;60892.56;4816944;28;20073;-86
2021/12/24 03:18:44;;;;;;;6.32;4.35;;;;;;;9.48;0.00;60892.56;4812915;28;20065;-86
2021/12/24 03:21:39;;;;;;;6.47;4.40;;;;;;;-145.06;0.00;60892.56;4816952;28;20369;-87
2021/12/24 03:26:58;;;;;;;7.55;5.28;;;;;;;-145.06;0.00;60892.56;4821756;28;20109;-87
2021/12/24 03:29:37;;;;;;;7.17;4.60;;;;;;;-145.06;0.00;60892.56;4819851;28;20030;-87
2021/12/24 03:32:16;;;;;;;6.57;4.55;;;;;;;9.55;0.00;60892.56;4818475;28;20278;-87
2021/12/24 03:34:55;;;;;;;8.77;5.10;;;;;;;9.40;0.00;60892.56;4821247;28;20034;-87
2021/12/24 03:37:34;;;;;;;5.63;3.87;;;;;;;-145.06;0.00;60892.56;4817205;28;20030;-87
2021/12/24 03:40:13;;;;;;;6.60;3.97;;;;;;;9.42;0.00;60892.56;4817197;28;20042;-87
2021/12/24 03:42:52;;;;;;;7.20;4.72;;;;;;;9.47;0.00;60892.56;4818015;28;20609;-88
2021/12/24 03:45:42;;;;;;;9.90;5.33;;;;;;;-145.06;0.00;60892.56;4820715;28;20034;-87
2021/12/24 03:48:27;;;;;;;9.15;5.57;;;;;;;-145.06;0.00;60892.56;4811755;28;20030;-87
2021/12/24 03:56:52;;;;;;;7.15;4.70;;;;;;;-145.06;0.00;60892.56;4818310;28;20607;-87
2021/12/24 03:59:31;;;;;;;8.30;5.07;;;;;;;9.50;0.00;60892.56;4813845;28;20647;-88
2021/12/24 04:02:10;;;;;;;6.77;4.50;;;;;;;-145.06;0.00;60892.56;4822030;28;20277;-86
2021/12/24 04:04:49;;;;;;;7.13;4.43;;;;;;;9.52;0.00;60892.56;4821146;28;20026;-87
2021/12/24 04:07:28;;;;;;;6.90;4.53;;;;;;;10.03;0.00;60892.56;4815426;28;20022;-87
2021/12/24 04:10:37;;;;;;;7.77;4.97;;;;;;;9.56;0.00;60892.56;4819686;28;20465;-88
2021/12/24 04:13:11;;;;;;;6.35;4.07;;;;;;;9.57;0.00;60892.56;4817202;28;20034;-87
2021/12/24 04:15:50;;;;;;;7.63;4.47;;;;;;;-145.06;0.00;60892.56;4816535;28;20042;-88
2021/12/24 04:27:23;;;;;;;6.00;4.07;;;;;;;187.52;0.00;60892.56;4793845;28;20026;-86
2021/12/24 04:30:09;;;;;;;7.28;4.40;;;;;;;9.63;0.00;60892.56;4814114;28;20046;-86
2021/12/24 05:01:41;;;;;;;8.67;5.10;;;;;;;9.71;0.00;60892.56;4827534;28;20035;-86
2021/12/24 05:04:26;;;;;;;9.48;4.35;;;;;;;-145.06;0.00;60892.56;4806880;28;20073;-87
2021/12/24 05:07:15;;;;;;;6.95;4.22;;;;;;;-145.06;0.00;60892.56;4818542;28;20070;-87
2021/12/24 05:09:54;;;;;;;5.63;4.20;;;;;;;-145.06;0.00;60892.56;4810058;28;20801;-87
2021/12/24 05:12:36;;;;;;;7.10;4.37;;;;;;;-145.06;0.00;60892.56;4816878;28;20034;-87
2021/12/24 05:15:16;;;;;;;5.07;3.25;;;;;;;-145.06;0.00;60892.56;4821739;28;20799;-87
2021/12/24 05:23:35;;;;;;;6.10;3.85;;;;;;;-145.06;0.00;60892.56;4822363;28;20739;-87
2021/12/24 05:26:17;;;;;;;6.13;3.87;;;;;;;9.64;0.00;60892.56;4820185;28;20038;-87
2021/12/24 05:28:57;;;;;;;7.07;3.60;;;;;;;9.66;0.00;60892.56;4814241;28;20265;-87
2021/12/24 05:31:37;;;;;;;6.22;3.80;;;;;;;-145.06;0.00;60892.56;4819801;28;20034;-87
2021/12/24 05:34:18;;;;;;;7.63;4.50;;;;;;;-145.06;0.00;60892.56;4819250;28;20105;-87
2021/12/24 05:36:57;;;;;;;8.68;4.93;;;;;;;10.03;0.00;60892.56;4820751;28;20022;-86
2021/12/24 05:39:36;;;;;;;6.17;4.07;;;;;;;-145.06;0.00;60892.56;4813646;28;20034;-86
2021/12/24 05:42:15;;;;;;;6.33;3.93;;;;;;;-145.06;0.00;60892.56;4820086;28;20030;-86
2021/12/24 05:45:00;;;;;;;5.43;3.83;;;;;;;-145.06;0.00;60892.56;4818327;28;20818;-87
2021/12/24 05:47:39;;;;;;;7.07;4.13;;;;;;;-145.06;0.00;60892.56;4802630;28;20035;-87
2021/12/24 05:50:18;;;;;;;6.47;4.00;;;;;;;-145.06;0.00;60892.56;4816366;28;20034;-86
2021/12/24 05:52:57;;;;;;;7.30;4.07;;;;;;;-145.06;0.00;60892.56;4815763;28;20034;-86
2021/12/24 05:55:36;;;;;;;6.75;3.33;;;;;;;-145.06;0.00;60892.56;4820013;28;20265;-86
2021/12/24 05:58:16;;;;;;;3.83;2.80;;;;;;;187.52;0.00;60892.56;4818906;28;20034;-87
2021/12/24 06:00:56;;;;;;;5.97;3.03;;;;;;;-145.06;0.00;60892.56;4817873;28;20030;-87
2021/12/24 06:03:35;;;;;;;6.68;3.25;;;;;;;-145.06;0.00;60892.56;4812541;28;20034;-87
2021/12/24 06:06:14;;;;;;;4.53;3.13;;;;;;;-145.06;0.00;60892.56;4831023;28;20066;-86
2021/12/24 06:08:52;;;;;;;6.03;3.80;;;;;;;-145.06;0.00;60892.56;4816838;28;20062;-87
2021/12/24 06:11:32;;;;;;;6.03;3.58;;;;;;;-145.06;0.00;60892.56;4818874;28;20038;-87
2021/12/24 06:14:12;;;;;;;5.18;3.35;;;;;;;-145.06;0.00;60892.56;4815482;28;20078;-87
2021/12/24 06:17:01;;;;;;;6.50;3.25;;;;;;;-145.06;0.00;60892.56;4817384;28;20057;-86
2021/12/24 06:19:40;;;;;;;4.28;2.80;;;;;;;-145.06;0.00;60892.56;4820434;28;20031;-86
2021/12/24 06:22:18;;;;;;;6.00;2.92;;;;;;;-145.06;0.00;60892.56;4816829;28;20645;-87
2021/12/24 06:24:58;;;;;;;4.93;3.00;;;;;;;-145.06;0.00;60892.56;4819691;28;20038;-87
2021/12/24 06:27:37;;;;;;;3.90;2.70;;;;;;;-145.06;0.00;60892.56;4817805;28;20038;-86
2021/12/24 06:30:16;;;;;;;;;;;;;;;-145.06;0.00;60892.56;4831946;28;20712;-87
2021/12/24 06:32:57;;;;;;;4.63;3.13;;;;;;;-145.06;0.00;60892.56;4824241;28;19944;-86
2021/12/24 06:35:37;;;;;;;4.47;3.00;;;;;;;-145.06;0.00;60892.56;4817288;28;20038;-86
2021/12/24 06:38:16;;;;;;;;;;;;;;;187.52;0.00;60892.56;4822639;28;20042;-86
2021/12/24 06:40:55;;;;;;;6.30;3.40;;;;;;;-145.06;0.00;60892.56;4813884;28;19918;-86
2021/12/24 06:43:34;;;;;;;5.53;3.65;;;;;;;10.68;0.00;60892.56;4810371;28;20113;-87
2021/12/24 06:46:13;;;;;;;5.07;3.58;;;;;;;-145.06;0.00;60892.56;4813552;28;20034;-87
2021/12/24 06:48:55;;;;;;;8.93;3.53;;;;;;;187.52;0.00;60892.56;4809816;28;20042;-87
2021/12/24 06:51:34;;;;;;;5.72;3.63;;;;;;;-145.06;0.00;60892.56;4819160;28;20030;-87
2021/12/24 06:54:13;;;;;;;6.05;3.58;;;;;;;-145.06;0.00;60892.56;4812382;28;20034;-87
2021/12/24 06:56:52;;;;;;;7.85;3.63;;;;;;;-145.06;0.00;60892.56;4815006;28;20073;-87
2021/12/24 06:59:31;;;;;;;4.50;3.30;;;;;;;-145.06;0.00;60892.56;4817241;28;20038;-87
2021/12/24 07:02:10;;;;;;;6.38;3.63;;;;;;;-145.06;0.00;60892.56;4813941;28;20070;-86
2021/12/24 07:04:49;;;;;;;5.63;3.70;;;;;;;-145.06;0.00;60892.56;4811424;28;20472;-87
2021/12/24 07:07:28;;;;;;;6.13;3.60;;;;;;;-145.06;0.00;60892.56;4811346;28;20026;-87
2021/12/24 07:10:07;;;;;;;4.70;3.28;;;;;;;-145.06;0.00;60892.56;4808930;28;20034;-88
2021/12/24 07:12:47;;;;;;;6.38;3.58;;;;;;;-145.06;0.00;60892.56;4847639;28;20038;-87
2021/12/24 07:15:26;;;;;;;6.20;3.63;;;;;;;-145.06;0.00;60892.56;4816760;28;20129;-86
2021/12/24 07:18:05;;;;;;;3.83;2.70;;;;;;;-145.06;0.00;60892.56;4810165;28;20265;-86
2021/12/24 07:20:44;;;;;;;5.75;3.10;;;;;;;10.68;0.00;60892.56;4816643;28;20042;-87
2021/12/24 07:23:23;;;;;;;5.88;3.30;;;;;;;-145.06;0.00;60892.56;4816880;28;20433;-86
2021/12/24 07:26:02;;;;;;;5.95;3.28;;;;;;;-145.06;0.00;60892.56;4813906;28;20038;-86
2021/12/24 07:28:41;;;;;;;7.70;3.80;;;;;;;-145.06;0.00;60892.56;4817935;28;20101;-88
2021/12/24 07:31:20;;;;;;;5.85;3.83;;;;;;;187.52;0.00;60892.56;4810745;28;20262;-87
2021/12/24 07:34:02;;;;;;;7.37;3.80;;;;;;;-145.06;0.00;60892.56;4831317;28;20384;-87
2021/12/24 07:36:42;;;;;;;5.68;3.42;;;;;;;-145.06;0.00;60892.56;4798976;28;20078;-87
2021/12/24 07:39:21;;;;;;;6.85;3.33;;;;;;;-145.06;0.00;60892.56;4817960;28;20372;-87
2021/12/24 07:42:00;;;;;;;7.25;3.92;;;;;;;9.83;0.00;60892.56;4815378;28;20030;-88
2021/12/24 07:44:39;;;;;;;4.70;3.10;;;;;;;-145.06;0.00;60892.56;4813371;28;20042;-86
2021/12/24 07:47:27;;;;;;;5.75;3.03;;;;;;;-145.06;0.00;60892.56;4811515;28;20026;-87
2021/12/24 07:53:10;;;;;;;5.32;2.88;;;;;;;-145.06;0.00;60892.56;4807628;28;20030;-88
2021/12/24 07:55:51;;;;;;;4.40;2.65;;;;;;;-145.06;0.00;60892.56;4813376;28;20038;-88
2021/12/24 07:58:30;;;;;;;3.17;2.35;;;;;;;-145.06;0.00;60892.56;4812696;28;20034;-87
2021/12/24 08:01:09;;;;;;;6.10;3.45;;;;;;;-145.06;0.00;60892.56;4811935;28;20042;-87
2021/12/24 08:03:48;;;;;;;6.82;3.55;;;;;;;-145.06;0.00;60892.56;4816596;28;20034;-87
2021/12/24 08:06:27;;;;;;;10.47;4.50;;;;;;;-145.06;0.00;60892.56;4808433;28;20037;-88
2021/12/24 08:09:07;;;;;;;7.38;3.50;;;;;;;-145.06;0.00;60892.56;4814865;28;20030;-87
2021/12/24 08:11:45;;;;;;;7.10;4.13;;;;;;;-145.06;0.00;60892.56;4812406;28;20380;-87
2021/12/24 08:14:24;;;;;;;6.23;3.80;;;;;;;-145.06;0.00;60892.56;4811134;28;20026;-87
2021/12/24 08:17:04;;;;;;;8.97;4.33;;;;;;;10.68;0.00;60892.56;4804624;28;20034;-87
2021/12/24 08:19:44;;;;;;;7.22;4.07;;;;;;;-145.06;0.00;60892.56;4829410;28;20026;-87
2021/12/24 08:22:22;;;;;;;6.00;3.92;;;;;;;-145.06;0.00;60892.56;4799258;28;20117;-88
2021/12/24 08:25:06;;;;;;;5.53;3.50;;;;;;;-145.06;0.00;60892.56;4813945;28;20118;-88
2021/12/24 08:27:46;;;;;;;6.65;3.83;;;;;;;187.52;0.00;60892.56;4812175;28;20038;-88
2021/12/24 08:30:25;;;;;;;5.68;3.47;;;;;;;-145.06;0.00;60892.56;4816582;28;20031;-87
2021/12/24 08:33:04;;;;;;;8.93;3.72;;;;;;;-145.06;0.00;60892.56;4811205;28;20365;-87
2021/12/24 08:35:43;;;;;;;8.60;3.78;;;;;;;-145.06;0.00;60892.56;4817355;28;20112;-87
2021/12/24 08:38:22;;;;;;;6.87;3.57;;;;;;;-145.06;0.00;60892.56;4817531;28;20046;-87
2021/12/24 08:41:01;;;;;;;7.30;3.60;;;;;;;-145.06;0.00;60892.56;4818497;28;20273;-87
2021/12/24 08:43:40;;;;;;;9.40;4.15;;;;;;;-145.06;0.00;60892.56;4816679;28;20049;-87
2021/12/24 08:46:19;;;;;;;7.10;3.67;;;;;;;-145.06;0.00;60892.56;4817229;28;20042;-87
2021/12/24 08:48:58;;;;;;;5.40;3.20;;;;;;;-145.06;0.00;60892.56;4840781;28;20030;-87
2021/12/24 08:51:37;;;;;;;7.65;3.78;;;;;;;-145.06;0.00;60892.56;4818849;28;20030;-86
2021/12/24 08:54:17;;;;;;;8.02;3.38;;;;;;;187.52;0.00;60892.56;4817873;28;20042;-88
2021/12/24 08:56:56;;;;;;;;;;;;;;;-145.06;0.00;60892.56;4816942;28;20042;-86
2021/12/24 08:59:35;;;;;;;4.70;2.78;;;;;;;-145.06;0.00;60892.56;4820174;28;19917;-88
2021/12/24 09:02:14;;;;;;;6.97;3.40;;;;;;;-145.06;0.00;60892.56;4811715;28;20038;-88
2021/12/24 09:04:53;;;;;;;5.50;3.17;;;;;;;-145.06;0.00;60892.56;4815995;28;20034;-88
2021/12/24 09:07:32;;;;;;;7.83;3.47;;;;;;;-145.06;0.00;60892.56;4816566;28;20369;-87
2021/12/24 09:10:12;;;;;;;8.80;3.80;;;;;;;-145.06;0.00;60892.56;4810754;28;20026;-87
2021/12/24 09:12:52;;;;;;;5.93;3.08;;;;;;;-145.06;0.00;60892.56;4813663;28;20628;-87
2021/12/24 09:15:31;;;;;;;5.97;3.58;;;;;;;10.68;0.00;60892.56;4816917;28;20031;-88
2021/12/24 09:18:10;;;;;;;5.82;3.00;;;;;;;-145.06;0.00;60892.56;4812998;28;21192;-87
2021/12/24 09:20:49;;;;;;;4.38;2.58;;;;;;;-145.06;0.00;60892.56;4814760;28;20069;-87
2021/12/24 09:23:28;;;;;;;8.07;3.20;;;;;;;-145.06;0.00;60892.56;4812336;28;20038;-89
2021/12/24 09:26:07;;;;;;;7.05;2.60;;;;;;;9.98;0.00;60892.56;4816140;28;20266;-89
2021/12/24 09:28:46;;;;;;;3.87;2.60;;;;;;;-145.06;0.00;60892.56;4813816;28;20110;-88
2021/12/24 09:31:26;;;;;;;5.65;2.88;;;;;;;-145.06;0.00;60892.56;4814243;28;20344;-88
2021/12/24 09:34:05;;;;;;;4.30;2.58;;;;;;;-145.06;0.00;60892.56;4817720;28;20105;-88
2021/12/24 09:36:45;;;;;;;6.90;3.20;;;;;;;10.68;0.00;60892.56;4817243;28;20034;-89
2021/12/24 09:39:24;;;;;;;6.68;2.80;;;;;;;-145.06;0.00;60892.56;4819177;28;20030;-88
2021/12/24 09:42:03;;;;;;;4.60;2.70;;;;;;;-145.06;0.00;60892.56;4812845;28;20042;-89
2021/12/24 09:44:42;;;;;;;;;;;;;;;-145.06;0.00;60892.56;4821701;28;20033;-89
2021/12/24 09:47:23;;;;;;;7.60;3.65;;;;;;;-145.06;0.00;60892.56;4816022;28;20029;-89
2021/12/24 09:50:04;;;;;;;8.07;3.70;;;;;;;-145.06;0.00;60892.56;4814886;28;20125;-88
2021/12/24 09:52:46;;;;;;;5.55;2.83;;;;;;;-145.06;0.00;60892.56;4842087;28;20042;-87
2021/12/24 09:55:29;;;;;;;4.40;2.70;;;;;;;-145.06;0.00;60892.56;4819509;28;20031;-88
2021/12/24 09:58:08;;;;;;;4.47;2.65;;;;;;;10.68;0.00;60892.56;4814311;28;20038;-89
2021/12/24 10:00:47;;;;;;;5.20;2.87;;;;;;;-145.06;0.00;60892.56;4822555;28;20034;-88
2021/12/24 10:03:35;;;;;;;3.65;2.33;;;;;;;-145.06;0.00;60892.56;4819381;28;20377;-89
2021/12/24 10:06:16;;;;;;;4.05;2.05;;;;;;;-145.06;0.00;60892.56;4813697;28;20042;-87
2021/12/24 10:09:15;;;;;;;3.92;2.13;;;;;;;-145.06;0.00;60892.56;4817363;28;20500;-89
2021/12/24 10:12:01;;;;;;;3.28;2.10;;;;;;;-145.06;0.00;60892.56;4814601;28;20649;-89
2021/12/24 10:15:01;;;;;;;4.25;2.08;;;;;;;-145.06;0.00;60892.56;4825864;28;20030;-88
2021/12/24 10:17:41;;;;;;;6.43;2.97;;;;;;;-145.06;0.00;60892.56;4814534;28;20022;-89
2021/12/24 10:20:20;;;;;;;3.00;2.10;;;;;;;-145.06;0.00;60892.56;4816738;28;20034;-90
2021/12/24 10:22:59;;;;;;;6.18;2.67;;;;;;;-145.06;0.00;60892.56;4813031;28;20034;-89
2021/12/24 10:25:38;;;;;;;6.97;2.60;;;;;;;-145.06;0.00;60892.56;4814829;28;20027;-90
2021/12/24 10:28:17;;;;;;;7.03;4.30;;;;;;;21.08;0.00;60892.56;4822191;28;20030;-90
2021/12/24 10:31:00;;;;;;;9.80;5.68;;;;;;;-145.06;0.00;60892.56;4810893;28;20488;-90
2021/12/24 10:33:39;;;;;;;8.35;4.95;;;;;;;-145.06;0.00;60892.56;4818190;28;20042;-89
2021/12/24 10:36:18;;;;;;;7.83;4.53;;;;;;;-145.06;0.00;60892.56;4820290;28;20444;-90
2021/12/24 10:38:57;;;;;;;7.95;3.95;;;;;;;-145.06;0.00;60892.56;4813851;28;20034;-90
2021/12/24 10:41:42;;;;;;;9.52;3.83;;;;;;;-145.06;0.00;60892.56;4818888;28;20382;-89
2021/12/24 10:44:28;;;;;;;8.80;4.00;;;;;;;10.41;0.00;60892.56;4811537;28;20066;-89
2021/12/24 10:47:15;;;;;;;8.45;3.90;;;;;;;10.47;0.00;60892.56;4814043;28;20358;-89
2021/12/24 10:49:59;;;;;;;6.72;3.55;;;;;;;10.51;0.00;60892.56;4841053;28;20030;-89
2021/12/24 10:53:34;;;;;;;6.10;3.15;;;;;;;10.56;0.00;60892.56;4829932;28;20018;-90
2021/12/24 10:55:48;;;;;;;4.57;2.67;;;;;;;10.68;0.00;60892.56;4811828;28;20047;-89
2021/12/24 10:58:28;;;;;;;5.70;3.05;;;;;;;10.70;0.00;60892.56;4809618;28;20035;-89
2021/12/24 11:01:07;;;;;;;3.67;2.50;;;;;;;-145.06;0.00;60892.56;4811113;28;20121;-89
2021/12/24 11:03:46;;;;;;;5.45;2.60;;;;;;;-145.06;0.00;60892.56;4809500;28;20038;-89
2021/12/24 11:06:30;;;;;;;6.70;2.43;;;;;;;-145.06;0.00;60892.56;4811867;28;20042;-88
2021/12/24 11:09:10;;;;;;;6.53;2.60;;;;;;;-145.06;0.00;60892.56;4808737;28;20030;-90
2021/12/24 11:11:49;;;;;;;9.00;2.60;;;;;;;-145.06;0.00;60892.56;4811494;28;20117;-89
2021/12/24 11:14:31;;;;;;;5.25;2.08;;;;;;;-145.06;0.00;60892.56;4810941;28;20038;-89
2021/12/24 11:17:10;;;;;;;6.10;2.40;;;;;;;-145.06;0.00;60892.56;4801701;28;20547;-87
2021/12/24 11:19:51;;;;;;;5.53;2.53;;;;;;;-145.06;0.00;60892.56;4809592;28;20034;-88
2021/12/24 11:22:36;;;;;;;5.55;2.20;;;;;;;-145.06;0.00;60892.56;4811698;28;20273;-89
2021/12/24 11:25:16;;;;;;;6.25;2.22;;;;;;;-145.06;0.00;60892.56;4812290;28;20252;-88
2021/12/24 11:27:56;;;;;;;4.20;2.00;;;;;;;-145.06;0.00;60892.56;4807808;28;20042;-88
2021/12/24 11:30:43;;;;;;;3.78;2.10;;;;;;;-145.06;0.00;60892.56;4805759;28;20917;-89
2021/12/24 11:33:25;;;;;;;6.38;1.83;;;;;;;187.52;0.00;60892.56;4804315;28;20038;-89
2021/12/24 11:36:06;;;;;;;7.35;2.58;;;;;;;-145.06;0.00;60892.56;4810631;28;20042;-89
2021/12/24 11:38:54;;;;;;;4.82;1.98;;;;;;;-145.06;0.00;60892.56;4811420;28;20038;-88
2021/12/24 11:41:34;;;;;;;3.90;2.00;;;;;;;-145.06;0.00;60892.56;4809588;28;20038;-88
2021/12/24 11:44:17;;;;;;;4.55;1.88;;;;;;;-145.06;0.00;60892.56;4808581;28;20113;-87
2021/12/24 11:46:56;;;;;;;4.93;1.95;;;;;;;-145.06;0.00;60892.56;4805637;28;20061;-88
2021/12/24 11:49:35;;;;;;;4.88;1.70;;;;;;;-145.06;0.00;60892.56;4806617;28;20137;-88
2021/12/24 11:52:15;;;;;;;6.18;2.15;;;;;;;-145.06;0.00;60892.56;4806209;28;20042;-89
2021/12/24 11:54:57;;;;;;;7.10;2.65;;;;;;;-145.06;0.00;60892.56;4808455;28;20302;-89
2021/12/24 11:57:59;;;;;;;5.20;2.20;;;;;;;-145.06;0.00;60892.56;4807189;28;20524;-89
2021/12/24 12:00:41;;;;;;;3.63;2.13;;;;;;;-145.06;0.00;60892.56;4804079;28;20038;-88
2021/12/24 12:03:45;;;;;;;4.82;2.17;;;;;;;-145.06;0.00;60892.56;4808690;28;20481;-88
2021/12/24 12:06:24;;;;;;;4.57;1.60;;;;;;;21.08;0.00;60892.56;4804961;28;20034;-88
2021/12/24 12:09:08;;;;;;;4.57;1.80;;;;;;;-145.06;0.00;60892.56;4810137;28;20034;-89
2021/12/24 12:11:57;;;;;;;7.28;2.20;;;;;;;-145.06;0.00;60892.56;4806969;28;20042;-88
2021/12/24 12:14:37;;;;;;;4.20;1.90;;;;;;;-145.06;0.00;60892.56;4810167;28;20030;-88
2021/12/24 12:17:23;;;;;;;;;;;;;;;-145.06;0.00;60892.56;4807697;28;20034;-88
2021/12/24 12:20:03;;;;;;;3.75;1.70;;;;;;;-145.06;0.00;60892.56;4808273;28;19925;-88
2021/12/24 12:25:36;;;;;;;4.10;1.77;;;;;;;-145.06;0.00;60892.56;4818578;28;20393;-89
2021/12/24 12:28:16;;;;;;;2.30;1.27;;;;;;;-145.06;0.00;60892.56;4812632;28;20574;-88
2021/12/24 12:30:55;;;;;;;2.60;1.52;;;;;;;-145.06;0.00;60892.56;4808172;28;20034;-89
2021/12/24 12:33:35;;;;;;;;;;;;;;;-145.06;0.00;60892.56;4809793;28;20061;-88
2021/12/24 12:36:14;;;;;;;3.87;1.60;;;;;;;-145.06;0.00;60892.56;4812694;28;19917;-89
2021/12/24 12:38:53;;;;;;;4.78;1.63;;;;;;;-145.06;0.00;60892.56;4808224;28;20038;-88
2021/12/24 12:41:34;;;;;;;5.60;1.90;;;;;;;11.24;0.00;60892.56;4811423;28;20041;-88
2021/12/24 12:44:15;;;;;;;5.80;1.70;;;;;;;-145.06;0.00;60892.56;4804949;28;20599;-88
2021/12/24 12:47:09;;;;;;;5.32;1.90;;;;;;;-145.06;0.00;60892.56;4807197;28;20567;-88
2021/12/24 12:49:54;;;;;;;3.20;1.50;;;;;;;-145.06;0.00;60892.56;4806576;28;20026;-89
2021/12/24 12:52:35;;;;;;;4.63;1.98;;;;;;;-145.06;0.00;60892.56;4810671;28;20066;-88
2021/12/24 12:55:32;;;;;;;4.25;2.28;;;;;;;-145.06;0.00;60892.56;4809357;28;20117;-89
2021/12/24 12:58:23;;;;;;;3.38;1.90;;;;;;;-145.06;0.00;60892.56;4805961;28;20030;-89
2021/12/24 13:01:20;;;;;;;5.75;1.65;;;;;;;-145.06;0.00;60892.56;4803299;28;20145;-89
2021/12/24 13:03:59;;;;;;;4.13;1.38;;;;;;;-145.06;0.00;60892.56;4806632;28;20042;-88
2021/12/24 13:06:41;;;;;;;4.30;1.95;;;;;;;-145.06;0.00;60892.56;4811845;28;20034;-87
2021/12/24 13:09:33;;;;;;;6.43;2.10;;;;;;;-145.06;0.00;60892.56;4807226;28;20034;-88
2021/12/24 13:12:15;;;;;;;6.13;2.20;;;;;;;187.52;0.00;60892.56;4805665;28;20038;-89
2021/12/24 13:14:59;;;;;;;3.83;1.98;;;;;;;-145.06;0.00;60892.56;4808942;28;20042;-88
2021/12/24 13:17:44;;;;;;;4.88;1.75;;;;;;;21.08;0.00;60892.56;4804576;28;20034;-90
2021/12/24 13:20:45;;;;;;;6.20;2.05;;;;;;;-145.06;0.00;60892.56;4815043;28;20030;-88
2021/12/24 13:23:24;;;;;;;5.97;1.70;;;;;;;-145.06;0.00;60892.56;4808514;28;20026;-88
2021/12/24 13:26:18;;;;;;;3.45;1.65;;;;;;;-145.06;0.00;60892.56;4813180;28;20073;-88
2021/12/24 13:29:16;;;;;;;3.05;1.50;;;;;;;-145.06;0.00;60892.56;4812081;28;20046;-89
2021/12/24 13:31:57;;;;;;;4.07;1.50;;;;;;;-145.06;0.00;60892.56;4813688;28;20041;-88
2021/12/24 13:34:36;;;;;;;2.88;1.00;;;;;;;-145.06;0.00;60892.56;4809160;28;20129;-88
2021/12/24 13:37:16;;;;;;;2.22;1.23;;;;;;;-145.06;0.00;60892.56;4813582;28;20038;-88
2021/12/24 13:39:55;;;;;;;4.22;1.50;;;;;;;187.52;0.00;60892.56;4810801;28;20034;-88
2021/12/24 13:42:46;;;;;;;4.90;1.70;;;;;;;-145.06;0.00;60892.56;4817355;28;20376;-88
2021/12/24 13:45:27;;;;;;;4.57;1.88;;;;;;;-145.06;0.00;60892.56;4811795;28;20042;-89
2021/12/24 13:48:31;;;;;;;3.85;1.52;;;;;;;-145.06;0.00;60892.56;4811241;28;20073;-89
2021/12/24 13:57:05;;;;;;;3.25;1.50;;;;;;;-145.06;0.00;60892.56;4814392;28;20504;-88
2021/12/24 13:59:53;;;;;;;2.75;1.35;;;;;;;-145.06;0.00;60892.56;4813797;28;20034;-88
2021/12/24 14:02:31;;;;;;;4.85;1.33;;;;;;;-145.06;0.00;60892.56;4815164;28;20030;-88
2021/12/24 14:05:12;;;;;;;2.60;1.05;;;;;;;-145.06;0.00;60892.56;4807373;28;20029;-89
2021/12/24 14:08:03;;;;;;;3.20;1.23;;;;;;;-145.06;0.00;60892.56;4812059;28;20596;-88
2021/12/24 14:10:45;;;;;;;2.95;1.23;;;;;;;-145.06;0.00;60892.56;4803904;28;20043;-88
2021/12/24 14:13:28;;;;;;;3.47;1.88;;;;;;;-145.06;0.00;60892.56;4807622;28;20776;-88
2021/12/24 14:16:29;;;;;;;4.25;2.10;;;;;;;-145.06;0.00;60892.56;4807636;28;20034;-89
2021/12/24 14:19:19;;;;;;;4.38;2.10;;;;;;;-145.06;0.00;60892.56;4804613;28;20712;-88
2021/12/24 14:22:13;;;;;;;2.47;1.50;;;;;;;-145.06;0.00;60892.56;4814301;28;20034;-88
2021/12/24 14:25:14;;;;;;;2.92;1.70;;;;;;;-145.06;0.00;60892.56;4807897;28;20038;-87
2021/12/24 14:27:53;;;;;;;3.47;1.40;;;;;;;10.92;0.00;60892.56;4813175;28;20046;-90
2021/12/24 14:30:32;;;;;;;2.95;1.27;;;;;;;-145.06;0.00;60892.56;4810106;28;20510;-89
2021/12/24 14:33:11;;;;;;;3.58;1.52;;;;;;;10.91;0.00;60892.56;4817651;28;20038;-89
2021/12/24 14:35:52;;;;;;;2.78;1.50;;;;;;;-145.06;0.00;60892.56;4812292;28;20038;-89